createdAt,value
2018-11-26T00:00:33.224Z,40.30
2018-11-26T00:01:05.939Z,39.50
2018-11-26T00:01:38.654Z,40.10
2018-11-26T00:02:11.339Z,39.42
2018-11-26T00:02:43.984Z,42.35
2018-11-26T00:03:16.653Z,37.50
2018-11-26T00:03:49.236Z,40.75
2018-11-26T00:04:21.851Z,39.58
2018-11-26T00:04:54.448Z,42.85
2018-11-26T00:05:27.048Z,41.18
2018-11-26T00:05:59.657Z,41.33
2018-11-26T00:06:32.270Z,42.40
2018-11-26T00:07:05.439Z,39.75
2018-11-26T00:07:38.037Z,40.92
2018-11-26T00:08:11.641Z,42.33
2018-11-26T00:08:44.273Z,42.15
2018-11-26T00:09:16.902Z,42.48
2018-11-26T00:09:49.532Z,40.25
2018-11-26T00:10:33.376Z,39.65
2018-11-26T00:11:17.367Z,40.30
2018-11-26T00:11:49.986Z,41.25
2018-11-26T00:12:22.593Z,38.70
2018-11-26T00:12:55.175Z,39.05
2018-11-26T00:13:27.888Z,40.85
2018-11-26T00:14:00.515Z,39.35
2018-11-26T00:14:33.108Z,41.00
2018-11-26T00:15:06.008Z,39.67
2018-11-26T00:15:38.668Z,41.73
2018-11-26T00:16:11.253Z,38.88
2018-11-26T00:16:43.900Z,38.95
2018-11-26T00:17:16.504Z,41.55
2018-11-26T00:17:49.082Z,42.13
2018-11-26T00:18:21.667Z,40.03
2018-11-26T00:18:54.277Z,41.63
2018-11-26T00:19:26.895Z,41.60
2018-11-26T00:19:59.476Z,42.30
2018-11-26T00:20:32.096Z,40.35
2018-11-26T00:21:05.042Z,42.33
2018-11-26T00:21:37.645Z,40.90
2018-11-26T00:22:10.242Z,42.10
2018-11-26T00:22:42.836Z,39.50
2018-11-26T00:23:15.431Z,42.10
2018-11-26T00:23:48.054Z,40.58
2018-11-26T00:24:20.639Z,41.90
2018-11-26T00:24:53.224Z,44.45
2018-11-26T00:25:26.286Z,44.27
2018-11-26T00:25:58.927Z,43.23
2018-11-26T00:26:31.524Z,44.18
2018-11-26T00:27:04.317Z,42.48
2018-11-26T00:27:36.913Z,41.92
2018-11-26T00:28:09.493Z,42.20
2018-11-26T00:28:42.105Z,44.25
2018-11-26T00:29:14.700Z,41.95
2018-11-26T00:29:47.286Z,44.25
2018-11-26T00:30:19.886Z,42.00
2018-11-26T00:30:52.475Z,43.52
2018-11-26T00:31:25.094Z,41.75
2018-11-26T00:31:57.683Z,40.90
2018-11-26T00:32:30.295Z,43.28
2018-11-26T00:33:02.878Z,41.95
2018-11-26T00:33:35.463Z,42.15
2018-11-26T00:34:08.073Z,44.60
2018-11-26T00:34:40.665Z,43.30
2018-11-26T00:35:13.253Z,41.63
2018-11-26T00:35:45.850Z,42.85
2018-11-26T00:36:18.445Z,43.38
2018-11-26T00:36:51.077Z,43.28
2018-11-26T00:37:23.704Z,41.42
2018-11-26T00:37:56.305Z,41.30
2018-11-26T00:38:28.900Z,40.85
2018-11-26T00:39:01.537Z,42.10
2018-11-26T00:39:34.108Z,39.90
2018-11-26T00:40:09.027Z,40.50
2018-11-26T00:40:41.612Z,42.90
2018-11-26T00:41:14.207Z,42.85
2018-11-26T00:41:46.810Z,41.50
2018-11-26T00:42:19.418Z,38.78
2018-11-26T00:42:52.033Z,38.55
2018-11-26T00:43:24.633Z,39.03
2018-11-26T00:43:57.255Z,38.53
2018-11-26T00:44:29.859Z,38.48
2018-11-26T00:45:02.460Z,39.73
2018-11-26T00:45:35.086Z,39.45
2018-11-26T00:46:07.740Z,35.55
2018-11-26T00:46:40.337Z,37.60
2018-11-26T00:47:12.938Z,38.90
2018-11-26T00:47:45.559Z,36.00
2018-11-26T00:48:18.176Z,37.70
2018-11-26T00:48:50.754Z,36.38
2018-11-26T00:49:23.346Z,36.83
2018-11-26T00:49:55.953Z,36.63
2018-11-26T00:50:28.561Z,35.45
2018-11-26T00:51:01.144Z,37.55
2018-11-26T00:51:33.790Z,37.20
2018-11-26T00:52:06.379Z,35.33
2018-11-26T00:52:39.928Z,35.50
2018-11-26T00:53:12.556Z,34.65
2018-11-26T00:53:45.149Z,36.40
2018-11-26T00:54:17.775Z,36.25
2018-11-26T00:54:50.366Z,35.35
2018-11-26T00:55:22.954Z,36.75
2018-11-26T00:55:55.545Z,34.98
2018-11-26T00:56:28.130Z,37.88
2018-11-26T00:57:00.728Z,35.55
2018-11-26T00:57:33.316Z,36.03
2018-11-26T00:58:05.955Z,36.63
2018-11-26T00:58:38.585Z,36.00
2018-11-26T00:59:11.166Z,37.85
2018-11-26T00:59:43.739Z,37.17
2018-11-26T01:00:16.433Z,36.30
2018-11-26T01:00:49.049Z,34.98
2018-11-26T01:01:21.666Z,37.58
2018-11-26T01:01:54.279Z,35.65
2018-11-26T01:02:26.879Z,35.43
2018-11-26T01:02:59.463Z,37.03
2018-11-26T01:03:32.101Z,36.60
2018-11-26T01:04:05.392Z,35.28
2018-11-26T01:04:39.174Z,37.28
2018-11-26T01:05:42.803Z,35.00
2018-11-26T01:06:15.421Z,37.15
2018-11-26T01:06:47.995Z,36.35
2018-11-26T01:07:20.595Z,33.05
2018-11-26T01:07:53.175Z,34.05
2018-11-26T01:08:25.763Z,33.05
2018-11-26T01:08:58.362Z,33.02
2018-11-26T01:09:30.982Z,33.95
2018-11-26T01:10:03.683Z,32.25
2018-11-26T01:10:36.332Z,33.18
2018-11-26T01:11:08.939Z,35.78
2018-11-26T01:11:41.560Z,32.88
2018-11-26T01:12:14.171Z,35.80
2018-11-26T01:12:46.772Z,34.35
2018-11-26T01:13:19.365Z,33.60
2018-11-26T01:13:52.076Z,31.25
2018-11-26T01:14:24.697Z,32.45
2018-11-26T01:14:57.319Z,34.78
2018-11-26T01:15:29.974Z,32.50
2018-11-26T01:16:02.590Z,33.40
2018-11-26T01:16:35.167Z,35.45
2018-11-26T01:17:07.778Z,32.35
2018-11-26T01:17:40.373Z,33.58
2018-11-26T01:18:12.975Z,31.42
2018-11-26T01:18:45.601Z,32.73
2018-11-26T01:19:18.198Z,29.80
2018-11-26T01:19:50.789Z,32.23
2018-11-26T01:20:23.497Z,34.05
2018-11-26T01:20:56.090Z,33.23
2018-11-26T01:21:28.686Z,32.45
2018-11-26T01:22:01.281Z,32.13
2018-11-26T01:22:33.880Z,31.40
2018-11-26T01:23:06.514Z,31.82
2018-11-26T01:23:39.108Z,32.40
2018-11-26T01:24:11.711Z,32.40
2018-11-26T01:24:44.314Z,33.95
2018-11-26T01:25:17.183Z,32.98
2018-11-26T01:25:49.829Z,31.07
2018-11-26T01:26:22.419Z,31.93
2018-11-26T01:26:55.013Z,33.65
2018-11-26T01:27:27.611Z,34.67
2018-11-26T01:28:00.207Z,32.10
2018-11-26T01:28:32.803Z,33.53
2018-11-26T01:29:05.757Z,36.75
2018-11-26T01:29:38.355Z,33.45
2018-11-26T01:30:10.947Z,37.58
2018-11-26T01:30:43.547Z,37.13
2018-11-26T01:31:16.167Z,35.13
2018-11-26T01:31:48.764Z,35.68
2018-11-26T01:32:21.373Z,37.45
2018-11-26T01:32:54.001Z,36.83
2018-11-26T01:33:26.621Z,36.88
2018-11-26T01:33:59.216Z,37.95
2018-11-26T01:34:31.829Z,34.98
2018-11-26T01:35:04.967Z,34.88
2018-11-26T01:35:37.547Z,37.05
2018-11-26T01:36:10.145Z,37.03
2018-11-26T01:36:42.768Z,33.63
2018-11-26T01:37:15.364Z,36.13
2018-11-26T01:37:47.967Z,36.17
2018-11-26T01:38:20.539Z,35.90
2018-11-26T01:38:53.132Z,35.20
2018-11-26T01:39:25.747Z,32.60
2018-11-26T01:39:58.353Z,33.80
2018-11-26T01:40:36.688Z,33.28
2018-11-26T01:41:09.291Z,31.45
2018-11-26T01:41:41.889Z,35.05
2018-11-26T01:42:14.498Z,33.85
2018-11-26T01:42:47.165Z,33.73
2018-11-26T01:43:20.283Z,31.27
2018-11-26T01:43:52.883Z,32.98
2018-11-26T01:44:25.468Z,32.38
2018-11-26T01:44:58.092Z,32.13
2018-11-26T01:45:30.692Z,31.62
2018-11-26T01:46:03.309Z,31.37
2018-11-26T01:46:35.936Z,32.95
2018-11-26T01:47:08.538Z,33.75
2018-11-26T01:47:41.168Z,32.08
2018-11-26T01:48:13.756Z,31.48
2018-11-26T01:48:46.364Z,32.55
2018-11-26T01:49:18.977Z,32.40
2018-11-26T01:49:51.580Z,31.95
2018-11-26T01:50:24.159Z,32.50
2018-11-26T01:50:56.766Z,32.15
2018-11-26T01:51:29.369Z,32.85
2018-11-26T01:52:01.959Z,32.58
2018-11-26T01:52:34.576Z,31.97
2018-11-26T01:53:07.457Z,31.00
2018-11-26T01:53:40.055Z,31.77
2018-11-26T01:54:12.655Z,34.25
2018-11-26T01:54:45.253Z,32.95
2018-11-26T01:55:17.858Z,31.35
2018-11-26T01:55:50.469Z,30.95
2018-11-26T01:56:23.081Z,33.23
2018-11-26T01:56:55.698Z,31.68
2018-11-26T01:57:28.276Z,32.93
2018-11-26T01:58:00.981Z,32.63
2018-11-26T01:58:33.593Z,32.23
2018-11-26T01:59:06.184Z,34.18
2018-11-26T01:59:38.780Z,32.17
2018-11-26T02:00:14.046Z,30.50
2018-11-26T02:00:46.674Z,31.85
2018-11-26T02:01:19.279Z,33.53
2018-11-26T02:01:51.896Z,33.08
2018-11-26T02:02:24.491Z,34.20
2018-11-26T02:02:57.088Z,33.20
2018-11-26T02:03:29.747Z,31.60
2018-11-26T02:04:02.378Z,33.33
2018-11-26T02:04:34.987Z,30.57
2018-11-26T02:05:07.660Z,32.55
2018-11-26T02:05:40.258Z,32.17
2018-11-26T02:06:12.839Z,34.70
2018-11-26T02:06:45.469Z,33.28
2018-11-26T02:07:18.106Z,33.18
2018-11-26T02:07:50.707Z,33.75
2018-11-26T02:08:23.305Z,32.63
2018-11-26T02:08:55.886Z,35.30
2018-11-26T02:09:28.528Z,33.13
2018-11-26T02:10:01.137Z,32.38
2018-11-26T02:10:33.731Z,31.57
2018-11-26T02:11:06.886Z,30.05
2018-11-26T02:11:39.470Z,33.67
2018-11-26T02:12:12.083Z,35.00
2018-11-26T02:12:44.727Z,33.80
2018-11-26T02:13:17.319Z,33.13
2018-11-26T02:13:49.929Z,32.08
2018-11-26T02:14:22.644Z,34.25
2018-11-26T02:14:55.280Z,32.80
2018-11-26T02:15:36.131Z,33.70
2018-11-26T02:16:08.732Z,33.25
2018-11-26T02:16:41.352Z,33.10
2018-11-26T02:17:13.936Z,31.80
2018-11-26T02:17:46.527Z,32.28
2018-11-26T02:18:19.109Z,32.30
2018-11-26T02:18:51.718Z,31.70
2018-11-26T02:19:24.316Z,33.55
2018-11-26T02:19:56.969Z,35.08
2018-11-26T02:20:29.581Z,35.20
2018-11-26T02:21:02.220Z,33.10
2018-11-26T02:21:34.819Z,34.18
2018-11-26T02:22:07.452Z,34.45
2018-11-26T02:22:40.052Z,33.92
2018-11-26T02:23:12.651Z,34.13
2018-11-26T02:23:45.272Z,33.80
2018-11-26T02:24:17.855Z,34.78
2018-11-26T02:24:50.458Z,33.75
2018-11-26T02:25:23.480Z,33.67
2018-11-26T02:25:56.064Z,34.80
2018-11-26T02:26:28.684Z,33.95
2018-11-26T02:27:01.285Z,33.58
2018-11-26T02:27:33.901Z,33.73
2018-11-26T02:28:06.662Z,32.83
2018-11-26T02:28:39.242Z,35.30
2018-11-26T02:29:11.827Z,34.83
2018-11-26T02:29:44.413Z,33.08
2018-11-26T02:30:17.017Z,32.75
2018-11-26T02:30:49.644Z,34.15
2018-11-26T02:31:22.251Z,32.53
2018-11-26T02:31:54.843Z,31.80
2018-11-26T02:32:27.456Z,34.00
2018-11-26T02:33:00.056Z,33.80
2018-11-26T02:33:32.645Z,34.63
2018-11-26T02:34:05.271Z,33.38
2018-11-26T02:34:37.882Z,31.82
2018-11-26T02:35:10.465Z,35.33
2018-11-26T02:35:43.072Z,32.63
2018-11-26T02:36:15.687Z,32.80
2018-11-26T02:36:48.302Z,34.80
2018-11-26T02:37:20.924Z,34.95
2018-11-26T02:37:53.712Z,34.43
2018-11-26T02:38:26.301Z,34.80
2018-11-26T02:38:58.911Z,31.25
2018-11-26T02:39:31.546Z,31.68
2018-11-26T02:40:05.591Z,32.08
2018-11-26T02:40:38.216Z,33.23
2018-11-26T02:41:10.837Z,35.35
2018-11-26T02:41:43.514Z,31.82
2018-11-26T02:42:16.119Z,33.45
2018-11-26T02:42:48.765Z,32.55
2018-11-26T02:43:21.404Z,33.50
2018-11-26T02:43:54.021Z,33.48
2018-11-26T02:44:26.638Z,31.17
2018-11-26T02:44:59.267Z,33.33
2018-11-26T02:45:31.908Z,34.20
2018-11-26T02:46:04.911Z,34.10
2018-11-26T02:46:37.536Z,33.53
2018-11-26T02:47:10.186Z,35.50
2018-11-26T02:47:42.807Z,34.08
2018-11-26T02:48:15.442Z,32.03
2018-11-26T02:48:48.060Z,32.03
2018-11-26T02:49:20.672Z,32.33
2018-11-26T02:49:53.271Z,31.82
2018-11-26T02:50:25.922Z,29.65
2018-11-26T02:50:58.536Z,32.93
2018-11-26T02:51:31.124Z,31.97
2018-11-26T02:52:03.770Z,30.75
2018-11-26T02:52:36.415Z,30.75
2018-11-26T02:53:09.070Z,33.48
2018-11-26T02:53:41.701Z,33.98
2018-11-26T02:54:14.329Z,34.27
2018-11-26T02:54:46.964Z,32.88
2018-11-26T02:55:19.645Z,33.15
2018-11-26T02:55:52.250Z,33.48
2018-11-26T02:56:24.881Z,33.38
2018-11-26T02:56:57.491Z,32.93
2018-11-26T02:57:30.121Z,32.58
2018-11-26T02:58:02.802Z,32.90
2018-11-26T02:58:35.431Z,30.77
2018-11-26T02:59:08.031Z,31.93
2018-11-26T02:59:40.635Z,33.28
2018-11-26T03:00:13.535Z,31.57
2018-11-26T03:00:46.457Z,32.75
2018-11-26T03:01:19.073Z,31.45
2018-11-26T03:01:52.078Z,32.42
2018-11-26T03:02:24.684Z,30.65
2018-11-26T03:02:57.348Z,32.40
2018-11-26T03:03:29.983Z,32.93
2018-11-26T03:04:02.624Z,32.30
2018-11-26T03:04:35.235Z,30.90
2018-11-26T03:05:10.083Z,31.30
2018-11-26T03:05:42.790Z,32.15
2018-11-26T03:06:15.417Z,32.30
2018-11-26T03:06:48.051Z,30.62
2018-11-26T03:07:20.698Z,32.85
2018-11-26T03:07:53.428Z,31.93
2018-11-26T03:08:26.053Z,33.15
2018-11-26T03:08:58.683Z,31.62
2018-11-26T03:09:31.320Z,31.80
2018-11-26T03:10:05.083Z,30.43
2018-11-26T03:10:37.725Z,32.85
2018-11-26T03:11:10.357Z,32.40
2018-11-26T03:11:42.960Z,32.75
2018-11-26T03:12:15.616Z,32.05
2018-11-26T03:12:48.252Z,31.68
2018-11-26T03:13:20.851Z,32.40
2018-11-26T03:13:53.498Z,32.78
2018-11-26T03:14:26.257Z,30.43
2018-11-26T03:14:58.881Z,31.05
2018-11-26T03:15:31.521Z,31.25
2018-11-26T03:16:04.404Z,33.60
2018-11-26T03:16:37.118Z,33.73
2018-11-26T03:17:09.727Z,31.23
2018-11-26T03:17:42.348Z,32.05
2018-11-26T03:18:14.961Z,33.53
2018-11-26T03:18:47.578Z,31.65
2018-11-26T03:19:20.201Z,31.33
2018-11-26T03:19:52.832Z,31.35
2018-11-26T03:20:25.461Z,32.10
2018-11-26T03:20:58.052Z,31.48
2018-11-26T03:21:30.651Z,32.60
2018-11-26T03:22:03.256Z,32.53
2018-11-26T03:22:35.864Z,31.57
2018-11-26T03:23:08.498Z,31.27
2018-11-26T03:23:41.117Z,33.00
2018-11-26T03:24:13.741Z,31.17
2018-11-26T03:24:46.372Z,31.42
2018-11-26T03:25:19.060Z,31.40
2018-11-26T03:25:51.681Z,33.10
2018-11-26T03:26:24.292Z,32.50
2018-11-26T03:26:56.907Z,32.88
2018-11-26T03:27:29.534Z,31.23
2018-11-26T03:28:02.153Z,33.30
2018-11-26T03:28:34.770Z,31.15
2018-11-26T03:29:07.396Z,33.33
2018-11-26T03:29:40.021Z,32.08
2018-11-26T03:30:16.937Z,31.73
2018-11-26T03:30:49.581Z,31.97
2018-11-26T03:31:22.219Z,33.75
2018-11-26T03:31:54.946Z,30.15
2018-11-26T03:32:27.575Z,30.72
2018-11-26T03:33:00.187Z,30.50
2018-11-26T03:33:32.832Z,32.10
2018-11-26T03:34:05.485Z,32.45
2018-11-26T03:34:38.140Z,32.90
2018-11-26T03:35:10.785Z,32.30
2018-11-26T03:35:43.392Z,32.48
2018-11-26T03:36:16.079Z,31.50
2018-11-26T03:36:48.695Z,32.23
2018-11-26T03:37:21.349Z,30.40
2018-11-26T03:37:53.993Z,31.55
2018-11-26T03:38:34.963Z,33.05
2018-11-26T03:39:07.658Z,29.72
2018-11-26T03:39:40.287Z,32.65
2018-11-26T03:40:13.368Z,31.52
2018-11-26T03:40:45.976Z,32.78
2018-11-26T03:41:18.699Z,31.35
2018-11-26T03:41:51.351Z,32.10
2018-11-26T03:42:23.969Z,28.92
2018-11-26T03:42:56.580Z,29.07
2018-11-26T03:43:29.201Z,30.92
2018-11-26T03:44:01.860Z,32.30
2018-11-26T03:44:34.474Z,31.00
2018-11-26T03:45:21.847Z,29.72
2018-11-26T03:45:54.477Z,29.15
2018-11-26T03:46:27.128Z,29.75
2018-11-26T03:46:59.764Z,29.48
2018-11-26T03:47:32.381Z,30.88
2018-11-26T03:48:05.629Z,31.33
2018-11-26T03:48:38.281Z,31.55
2018-11-26T03:49:10.917Z,30.48
2018-11-26T03:49:43.540Z,31.12
2018-11-26T03:50:16.184Z,30.30
2018-11-26T03:50:48.817Z,28.80
2018-11-26T03:51:21.437Z,30.65
2018-11-26T03:51:54.081Z,30.15
2018-11-26T03:52:26.719Z,31.37
2018-11-26T03:52:59.324Z,30.82
2018-11-26T03:53:31.945Z,28.90
2018-11-26T03:54:04.688Z,31.68
2018-11-26T03:54:37.288Z,29.67
2018-11-26T03:55:10.706Z,28.35
2018-11-26T03:55:43.344Z,29.35
2018-11-26T03:56:15.978Z,31.17
2018-11-26T03:56:48.596Z,30.77
2018-11-26T03:57:21.263Z,28.98
2018-11-26T03:57:53.877Z,30.77
2018-11-26T03:58:26.502Z,30.10
2018-11-26T03:58:59.127Z,29.35
2018-11-26T03:59:31.743Z,31.40
2018-11-26T04:00:06.911Z,30.15
2018-11-26T04:00:39.533Z,31.35
2018-11-26T04:01:12.155Z,30.70
2018-11-26T04:01:44.780Z,31.27
2018-11-26T04:02:17.408Z,30.45
2018-11-26T04:02:50.051Z,29.92
2018-11-26T04:03:22.676Z,30.75
2018-11-26T04:03:55.306Z,30.30
2018-11-26T04:04:27.924Z,33.88
2018-11-26T04:05:00.542Z,32.75
2018-11-26T04:05:33.160Z,30.97
2018-11-26T04:06:05.835Z,33.70
2018-11-26T04:06:38.452Z,32.48
2018-11-26T04:07:11.058Z,32.58
2018-11-26T04:07:43.689Z,30.72
2018-11-26T04:08:16.336Z,30.92
2018-11-26T04:08:48.946Z,31.27
2018-11-26T04:09:21.578Z,31.68
2018-11-26T04:09:54.195Z,32.95
2018-11-26T04:10:26.802Z,31.62
2018-11-26T04:10:59.441Z,31.57
2018-11-26T04:11:32.063Z,33.10
2018-11-26T04:12:05.015Z,31.30
2018-11-26T04:12:37.626Z,29.85
2018-11-26T04:13:10.288Z,30.88
2018-11-26T04:13:42.945Z,31.30
2018-11-26T04:14:15.637Z,31.02
2018-11-26T04:14:48.361Z,32.25
2018-11-26T04:15:21.012Z,30.80
2018-11-26T04:15:53.621Z,31.95
2018-11-26T04:16:26.235Z,32.10
2018-11-26T04:17:02.004Z,29.02
2018-11-26T04:17:34.612Z,32.75
2018-11-26T04:18:07.249Z,33.00
2018-11-26T04:18:39.878Z,31.40
2018-11-26T04:19:12.536Z,32.75
2018-11-26T04:19:45.203Z,31.25
2018-11-26T04:20:17.843Z,31.20
2018-11-26T04:20:50.464Z,31.55
2018-11-26T04:21:23.081Z,32.03
2018-11-26T04:21:55.701Z,30.40
2018-11-26T04:22:28.322Z,30.75
2018-11-26T04:23:00.942Z,32.13
2018-11-26T04:23:33.578Z,31.62
2018-11-26T04:24:06.234Z,32.53
2018-11-26T04:24:38.878Z,31.55
2018-11-26T04:25:11.488Z,30.90
2018-11-26T04:25:44.113Z,30.32
2018-11-26T04:26:16.723Z,31.90
2018-11-26T04:26:49.347Z,31.77
2018-11-26T04:27:21.970Z,32.05
2018-11-26T04:27:54.602Z,32.40
2018-11-26T04:28:27.214Z,32.40
2018-11-26T04:28:59.839Z,31.97
2018-11-26T04:29:32.456Z,31.82
2018-11-26T04:30:08.272Z,29.90
2018-11-26T04:30:40.909Z,34.08
2018-11-26T04:31:13.552Z,31.62
2018-11-26T04:31:46.184Z,30.92
2018-11-26T04:32:18.796Z,31.35
2018-11-26T04:32:51.419Z,31.97
2018-11-26T04:33:24.044Z,31.33
2018-11-26T04:33:56.678Z,30.37
2018-11-26T04:34:29.291Z,29.57
2018-11-26T04:35:01.913Z,32.50
2018-11-26T04:35:34.552Z,29.20
2018-11-26T04:36:07.195Z,32.35
2018-11-26T04:36:39.812Z,30.57
2018-11-26T04:37:12.448Z,31.40
2018-11-26T04:37:45.040Z,33.28
2018-11-26T04:38:17.665Z,31.60
2018-11-26T04:38:50.330Z,30.82
2018-11-26T04:39:22.942Z,32.90
2018-11-26T04:39:55.555Z,31.68
2018-11-26T04:40:28.178Z,31.95
2018-11-26T04:41:00.822Z,31.25
2018-11-26T04:41:33.423Z,30.97
2018-11-26T04:42:06.052Z,31.48
2018-11-26T04:42:38.729Z,31.95
2018-11-26T04:43:11.347Z,31.35
2018-11-26T04:43:43.955Z,33.23
2018-11-26T04:44:16.562Z,32.95
2018-11-26T04:44:49.177Z,29.90
2018-11-26T04:45:21.831Z,31.07
2018-11-26T04:45:54.444Z,30.75
2018-11-26T04:46:27.099Z,30.20
2018-11-26T04:46:59.717Z,31.27
2018-11-26T04:47:32.349Z,31.70
2018-11-26T04:48:05.196Z,31.97
2018-11-26T04:48:37.841Z,32.38
2018-11-26T04:49:10.477Z,31.37
2018-11-26T04:49:43.099Z,29.95
2018-11-26T04:50:15.752Z,30.68
2018-11-26T04:50:48.424Z,30.15
2018-11-26T04:51:21.058Z,30.70
2018-11-26T04:51:53.704Z,29.25
2018-11-26T04:52:26.371Z,33.00
2018-11-26T04:52:58.976Z,30.60
2018-11-26T04:53:31.588Z,29.50
2018-11-26T04:54:04.244Z,30.80
2018-11-26T04:54:36.851Z,30.82
2018-11-26T04:55:11.534Z,32.03
2018-11-26T04:55:44.169Z,31.80
2018-11-26T04:56:16.807Z,31.77
2018-11-26T04:56:49.431Z,32.30
2018-11-26T04:57:22.089Z,31.10
2018-11-26T04:57:54.712Z,31.62
2018-11-26T04:58:27.319Z,31.52
2018-11-26T04:58:59.937Z,30.62
2018-11-26T04:59:32.559Z,32.70
2018-11-26T05:00:08.127Z,30.17
2018-11-26T05:00:40.753Z,33.05
2018-11-26T05:01:13.394Z,31.62
2018-11-26T05:01:46.011Z,32.10
2018-11-26T05:02:18.623Z,31.20
2018-11-26T05:02:51.281Z,31.40
2018-11-26T05:03:23.919Z,32.13
2018-11-26T05:03:56.537Z,31.27
2018-11-26T05:04:29.157Z,31.95
2018-11-26T05:05:01.793Z,30.00
2018-11-26T05:05:34.424Z,31.17
2018-11-26T05:06:07.062Z,30.70
2018-11-26T05:06:39.804Z,31.60
2018-11-26T05:07:12.437Z,31.62
2018-11-26T05:07:45.061Z,32.48
2018-11-26T05:08:17.748Z,30.37
2018-11-26T05:08:50.377Z,29.12
2018-11-26T05:09:22.992Z,30.37
2018-11-26T05:09:55.616Z,30.12
2018-11-26T05:10:28.219Z,32.45
2018-11-26T05:11:00.862Z,33.90
2018-11-26T05:11:33.474Z,33.20
2018-11-26T05:12:06.139Z,29.70
2018-11-26T05:12:38.781Z,31.60
2018-11-26T05:13:11.418Z,31.12
2018-11-26T05:13:44.060Z,30.00
2018-11-26T05:14:16.684Z,29.65
2018-11-26T05:14:49.406Z,30.62
2018-11-26T05:15:22.011Z,29.32
2018-11-26T05:15:54.625Z,28.92
2018-11-26T05:16:27.253Z,27.50
2018-11-26T05:16:59.855Z,30.82
2018-11-26T05:17:32.488Z,30.40
2018-11-26T05:18:05.330Z,31.85
2018-11-26T05:18:37.956Z,29.00
2018-11-26T05:19:10.595Z,29.85
2018-11-26T05:19:43.226Z,27.60
2018-11-26T05:20:15.854Z,30.10
2018-11-26T05:20:48.490Z,30.35
2018-11-26T05:21:21.110Z,30.50
2018-11-26T05:21:53.734Z,30.35
2018-11-26T05:22:26.372Z,29.12
2018-11-26T05:22:58.989Z,29.77
2018-11-26T05:23:31.620Z,29.45
2018-11-26T05:24:04.313Z,28.25
2018-11-26T05:24:36.969Z,29.42
2018-11-26T05:25:10.332Z,30.40
2018-11-26T05:25:42.949Z,29.87
2018-11-26T05:26:15.571Z,30.57
2018-11-26T05:26:48.212Z,29.15
2018-11-26T05:27:20.818Z,32.05
2018-11-26T05:27:53.433Z,28.50
2018-11-26T05:28:26.055Z,30.70
2018-11-26T05:28:58.682Z,30.68
2018-11-26T05:29:31.298Z,29.50
2018-11-26T05:30:04.804Z,30.30
2018-11-26T05:30:37.441Z,30.00
2018-11-26T05:31:10.063Z,31.35
2018-11-26T05:31:42.670Z,29.95
2018-11-26T05:32:15.286Z,31.15
2018-11-26T05:32:47.896Z,29.32
2018-11-26T05:33:20.527Z,31.17
2018-11-26T05:33:53.145Z,31.35
2018-11-26T05:34:25.772Z,29.87
2018-11-26T05:34:58.455Z,30.55
2018-11-26T05:35:31.144Z,28.45
2018-11-26T05:36:03.787Z,31.73
2018-11-26T05:36:36.417Z,30.43
2018-11-26T05:37:09.049Z,30.10
2018-11-26T05:37:41.673Z,29.85
2018-11-26T05:38:14.287Z,32.15
2018-11-26T05:38:46.910Z,30.60
2018-11-26T05:39:19.550Z,29.57
2018-11-26T05:39:52.184Z,31.05
2018-11-26T05:40:24.838Z,30.70
2018-11-26T05:40:57.491Z,29.55
2018-11-26T05:41:31.217Z,28.30
2018-11-26T05:42:03.909Z,30.27
2018-11-26T05:42:36.558Z,31.10
2018-11-26T05:43:09.194Z,31.75
2018-11-26T05:43:41.798Z,31.80
2018-11-26T05:44:14.433Z,28.85
2018-11-26T05:44:47.031Z,30.72
2018-11-26T05:45:19.655Z,31.40
2018-11-26T05:45:52.273Z,31.17
2018-11-26T05:46:24.932Z,30.30
2018-11-26T05:46:57.550Z,32.08
2018-11-26T05:47:30.520Z,30.95
2018-11-26T05:48:03.228Z,32.08
2018-11-26T05:48:35.999Z,30.72
2018-11-26T05:49:08.666Z,32.90
2018-11-26T05:49:41.293Z,31.12
2018-11-26T05:50:14.733Z,32.05
2018-11-26T05:50:47.378Z,31.70
2018-11-26T05:51:20.071Z,31.70
2018-11-26T05:51:52.717Z,33.02
2018-11-26T05:52:25.381Z,31.00
2018-11-26T05:52:58.021Z,32.15
2018-11-26T05:53:30.635Z,31.40
2018-11-26T05:54:03.283Z,32.15
2018-11-26T05:54:35.934Z,31.23
2018-11-26T05:55:11.179Z,33.35
2018-11-26T05:55:43.817Z,33.63
2018-11-26T05:56:16.464Z,31.87
2018-11-26T05:56:49.073Z,31.30
2018-11-26T05:57:21.725Z,35.50
2018-11-26T05:57:54.352Z,31.57
2018-11-26T05:58:26.975Z,30.80
2018-11-26T05:58:59.591Z,31.70
2018-11-26T05:59:32.214Z,34.35
2018-11-26T06:00:28.572Z,30.90
2018-11-26T06:01:01.201Z,30.68
2018-11-26T06:01:33.839Z,32.40
2018-11-26T06:02:06.551Z,32.05
2018-11-26T06:02:39.200Z,30.65
2018-11-26T06:03:11.831Z,32.90
2018-11-26T06:03:44.449Z,32.60
2018-11-26T06:04:17.119Z,34.10
2018-11-26T06:04:49.719Z,33.13
2018-11-26T06:05:22.361Z,34.43
2018-11-26T06:05:55.000Z,32.40
2018-11-26T06:06:27.607Z,33.38
2018-11-26T06:07:00.220Z,33.58
2018-11-26T06:07:32.819Z,36.55
2018-11-26T06:08:05.616Z,34.55
2018-11-26T06:08:38.310Z,33.40
2018-11-26T06:09:11.081Z,33.18
2018-11-26T06:09:43.700Z,33.13
2018-11-26T06:10:16.316Z,33.15
2018-11-26T06:10:48.974Z,33.78
2018-11-26T06:11:21.598Z,35.23
2018-11-26T06:11:54.244Z,33.90
2018-11-26T06:12:26.924Z,36.05
2018-11-26T06:12:59.551Z,36.95
2018-11-26T06:13:32.201Z,36.63
2018-11-26T06:14:05.149Z,35.35
2018-11-26T06:14:37.761Z,36.00
2018-11-26T06:15:12.003Z,35.63
2018-11-26T06:15:44.615Z,36.60
2018-11-26T06:16:17.218Z,35.45
2018-11-26T06:16:53.723Z,35.20
2018-11-26T06:17:22.472Z,35.13
2018-11-26T06:17:55.102Z,35.98
2018-11-26T06:18:27.708Z,36.05
2018-11-26T06:19:00.370Z,35.33
2018-11-26T06:19:32.987Z,36.45
2018-11-26T06:20:06.916Z,35.88
2018-11-26T06:20:39.586Z,35.60
2018-11-26T06:21:12.286Z,35.13
2018-11-26T06:21:44.899Z,35.00
2018-11-26T06:22:17.515Z,38.13
2018-11-26T06:22:50.123Z,36.95
2018-11-26T06:23:22.756Z,35.20
2018-11-26T06:23:55.360Z,35.30
2018-11-26T06:24:27.995Z,36.20
2018-11-26T06:25:00.625Z,36.93
2018-11-26T06:25:33.295Z,35.68
2018-11-26T06:26:05.934Z,36.05
2018-11-26T06:26:38.579Z,37.70
2018-11-26T06:27:11.216Z,36.05
2018-11-26T06:27:43.898Z,35.13
2018-11-26T06:28:16.517Z,35.38
2018-11-26T06:28:49.124Z,36.58
2018-11-26T06:29:21.738Z,35.52
2018-11-26T06:29:54.377Z,35.73
2018-11-26T06:30:26.985Z,34.78
2018-11-26T06:30:59.607Z,36.25
2018-11-26T06:31:32.224Z,37.08
2018-11-26T06:32:04.887Z,37.42
2018-11-26T06:32:37.560Z,37.10
2018-11-26T06:33:10.241Z,36.05
2018-11-26T06:33:42.867Z,35.55
2018-11-26T06:34:15.598Z,36.68
2018-11-26T06:34:48.431Z,35.10
2018-11-26T06:35:22.189Z,33.45
2018-11-26T06:35:54.832Z,36.80
2018-11-26T06:36:27.469Z,37.73
2018-11-26T06:37:00.124Z,36.03
2018-11-26T06:37:32.736Z,38.25
2018-11-26T06:38:06.616Z,36.73
2018-11-26T06:38:39.234Z,35.63
2018-11-26T06:39:11.853Z,37.20
2018-11-26T06:39:44.470Z,36.65
2018-11-26T06:40:17.182Z,36.80
2018-11-26T06:40:49.851Z,39.40
2018-11-26T06:41:22.461Z,36.53
2018-11-26T06:41:55.106Z,35.52
2018-11-26T06:42:27.801Z,36.10
2018-11-26T06:43:00.583Z,34.90
2018-11-26T06:43:33.206Z,37.85
2018-11-26T06:44:06.516Z,35.88
2018-11-26T06:44:39.136Z,36.35
2018-11-26T06:45:15.844Z,36.40
2018-11-26T06:45:48.463Z,37.10
2018-11-26T06:46:21.106Z,36.85
2018-11-26T06:46:53.686Z,36.77
2018-11-26T06:47:26.298Z,38.15
2018-11-26T06:47:58.913Z,34.98
2018-11-26T06:48:31.552Z,37.80
2018-11-26T06:49:04.415Z,37.80
2018-11-26T06:49:37.025Z,34.73
2018-11-26T06:50:13.083Z,36.15
2018-11-26T06:50:45.702Z,35.88
2018-11-26T06:51:18.333Z,36.20
2018-11-26T06:51:50.972Z,35.73
2018-11-26T06:52:23.563Z,37.23
2018-11-26T06:52:56.162Z,35.88
2018-11-26T06:53:28.781Z,36.58
2018-11-26T06:54:01.401Z,37.30
2018-11-26T06:54:34.010Z,38.75
2018-11-26T06:55:09.518Z,36.35
2018-11-26T06:55:42.213Z,37.33
2018-11-26T06:56:14.815Z,34.70
2018-11-26T06:56:47.437Z,35.50
2018-11-26T06:57:20.081Z,37.80
2018-11-26T06:57:52.684Z,37.42
2018-11-26T06:58:25.298Z,35.48
2018-11-26T06:58:57.934Z,37.63
2018-11-26T06:59:30.550Z,34.90
2018-11-26T07:00:03.771Z,37.67
2018-11-26T07:00:36.389Z,36.77
2018-11-26T07:01:08.980Z,36.63
2018-11-26T07:01:41.588Z,36.48
2018-11-26T07:02:14.203Z,35.52
2018-11-26T07:02:46.836Z,37.03
2018-11-26T07:03:19.431Z,37.23